sensor_id;sensor_type;location;lat;lon;timestamp;P1;durP1;ratioP1;P2;durP2;ratioP2
34236;SDS011;20501;45.956;13.632;2023-11-21T00:00:49;20.55;;;10.20;;
34236;SDS011;20501;45.956;13.632;2023-11-21T00:03:14;19.15;;;9.90;;
34236;SDS011;20501;45.956;13.632;2023-11-21T00:05:40;15.80;;;10.23;;
34236;SDS011;20501;45.956;13.632;2023-11-21T00:08:06;17.23;;;9.80;;
34236;SDS011;20501;45.956;13.632;2023-11-21T00:10:35;18.38;;;10.82;;
34236;SDS011;20501;45.956;13.632;2023-11-21T00:13:03;13.10;;;9.30;;
34236;SDS011;20501;45.956;13.632;2023-11-21T00:15:29;16.38;;;9.70;;
34236;SDS011;20501;45.956;13.632;2023-11-21T00:17:54;14.50;;;9.20;;
34236;SDS011;20501;45.956;13.632;2023-11-21T00:20:20;18.70;;;9.63;;
34236;SDS011;20501;45.956;13.632;2023-11-21T00:22:45;15.88;;;9.57;;
34236;SDS011;20501;45.956;13.632;2023-11-21T00:25:11;16.45;;;10.00;;
34236;SDS011;20501;45.956;13.632;2023-11-21T00:27:39;17.48;;;9.63;;
34236;SDS011;20501;45.956;13.632;2023-11-21T00:30:05;16.80;;;9.85;;
34236;SDS011;20501;45.956;13.632;2023-11-21T00:32:31;13.93;;;9.07;;
34236;SDS011;20501;45.956;13.632;2023-11-21T00:34:57;17.23;;;10.02;;
34236;SDS011;20501;45.956;13.632;2023-11-21T00:37:22;15.10;;;9.27;;
34236;SDS011;20501;45.956;13.632;2023-11-21T00:39:50;17.90;;;10.25;;
34236;SDS011;20501;45.956;13.632;2023-11-21T00:42:15;16.67;;;10.25;;
34236;SDS011;20501;45.956;13.632;2023-11-21T00:44:40;18.88;;;9.25;;
34236;SDS011;20501;45.956;13.632;2023-11-21T00:47:06;16.15;;;9.25;;
34236;SDS011;20501;45.956;13.632;2023-11-21T00:49:33;19.15;;;10.25;;
34236;SDS011;20501;45.956;13.632;2023-11-21T00:51:58;20.35;;;10.98;;
34236;SDS011;20501;45.956;13.632;2023-11-21T00:54:24;28.15;;;14.30;;
34236;SDS011;20501;45.956;13.632;2023-11-21T00:56:49;35.10;;;16.80;;
34236;SDS011;20501;45.956;13.632;2023-11-21T00:59:15;17.67;;;10.77;;
34236;SDS011;20501;45.956;13.632;2023-11-21T01:01:40;16.55;;;9.00;;
34236;SDS011;20501;45.956;13.632;2023-11-21T01:04:06;19.48;;;8.95;;
34236;SDS011;20501;45.956;13.632;2023-11-21T01:06:34;18.40;;;8.90;;
34236;SDS011;20501;45.956;13.632;2023-11-21T01:08:59;15.57;;;8.50;;
34236;SDS011;20501;45.956;13.632;2023-11-21T01:11:24;17.65;;;8.98;;
34236;SDS011;20501;45.956;13.632;2023-11-21T01:13:51;13.80;;;8.57;;
34236;SDS011;20501;45.956;13.632;2023-11-21T01:16:17;13.67;;;8.90;;
34236;SDS011;20501;45.956;13.632;2023-11-21T01:18:42;18.15;;;8.73;;
34236;SDS011;20501;45.956;13.632;2023-11-21T01:21:08;13.50;;;8.82;;
34236;SDS011;20501;45.956;13.632;2023-11-21T01:23:34;15.73;;;8.57;;
34236;SDS011;20501;45.956;13.632;2023-11-21T01:26:00;16.95;;;8.52;;
34236;SDS011;20501;45.956;13.632;2023-11-21T01:28:25;16.85;;;8.63;;
34236;SDS011;20501;45.956;13.632;2023-11-21T01:30:51;14.27;;;7.82;;
34236;SDS011;20501;45.956;13.632;2023-11-21T01:33:17;12.30;;;8.65;;
34236;SDS011;20501;45.956;13.632;2023-11-21T01:35:43;14.15;;;8.52;;
34236;SDS011;20501;45.956;13.632;2023-11-21T01:38:09;18.57;;;9.50;;
34236;SDS011;20501;45.956;13.632;2023-11-21T01:40:35;13.05;;;7.88;;
34236;SDS011;20501;45.956;13.632;2023-11-21T01:43:00;15.57;;;8.45;;
34236;SDS011;20501;45.956;13.632;2023-11-21T01:45:28;11.15;;;7.70;;
34236;SDS011;20501;45.956;13.632;2023-11-21T01:47:56;15.35;;;8.38;;
34236;SDS011;20501;45.956;13.632;2023-11-21T01:50:21;11.70;;;8.05;;
34236;SDS011;20501;45.956;13.632;2023-11-21T01:52:47;13.65;;;7.95;;
34236;SDS011;20501;45.956;13.632;2023-11-21T01:55:14;16.45;;;9.45;;
34236;SDS011;20501;45.956;13.632;2023-11-21T01:57:44;19.98;;;9.15;;
34236;SDS011;20501;45.956;13.632;2023-11-21T02:00:11;16.92;;;9.77;;
34236;SDS011;20501;45.956;13.632;2023-11-21T02:02:47;14.27;;;9.68;;
34236;SDS011;20501;45.956;13.632;2023-11-21T02:05:14;15.52;;;8.77;;
34236;SDS011;20501;45.956;13.632;2023-11-21T02:07:41;23.90;;;11.70;;
34236;SDS011;20501;45.956;13.632;2023-11-21T02:12:33;26.13;;;16.08;;
34236;SDS011;20501;45.956;13.632;2023-11-21T02:15:00;29.27;;;18.50;;
34236;SDS011;20501;45.956;13.632;2023-11-21T02:17:30;36.38;;;20.30;;
34236;SDS011;20501;45.956;13.632;2023-11-21T02:19:55;32.75;;;20.63;;
34236;SDS011;20501;45.956;13.632;2023-11-21T02:22:21;34.97;;;19.60;;
34236;SDS011;20501;45.956;13.632;2023-11-21T02:24:47;43.13;;;19.23;;
34236;SDS011;20501;45.956;13.632;2023-11-21T02:27:13;39.65;;;18.67;;
34236;SDS011;20501;45.956;13.632;2023-11-21T02:29:38;37.67;;;18.30;;
34236;SDS011;20501;45.956;13.632;2023-11-21T02:32:04;21.88;;;11.93;;
34236;SDS011;20501;45.956;13.632;2023-11-21T02:34:30;19.60;;;9.50;;
34236;SDS011;20501;45.956;13.632;2023-11-21T02:36:56;11.57;;;7.20;;
34236;SDS011;20501;45.956;13.632;2023-11-21T02:39:22;11.88;;;7.18;;
34236;SDS011;20501;45.956;13.632;2023-11-21T02:41:48;9.18;;;6.70;;
34236;SDS011;20501;45.956;13.632;2023-11-21T02:44:14;13.77;;;7.50;;
34236;SDS011;20501;45.956;13.632;2023-11-21T02:46:40;11.85;;;6.55;;
34236;SDS011;20501;45.956;13.632;2023-11-21T02:49:06;12.75;;;6.72;;
34236;SDS011;20501;45.956;13.632;2023-11-21T02:51:32;14.27;;;6.80;;
34236;SDS011;20501;45.956;13.632;2023-11-21T02:53:58;11.43;;;7.10;;
34236;SDS011;20501;45.956;13.632;2023-11-21T02:56:25;11.35;;;7.03;;
34236;SDS011;20501;45.956;13.632;2023-11-21T02:58:55;10.13;;;6.55;;
34236;SDS011;20501;45.956;13.632;2023-11-21T03:01:21;11.48;;;6.72;;
34236;SDS011;20501;45.956;13.632;2023-11-21T03:03:46;11.98;;;7.18;;
34236;SDS011;20501;45.956;13.632;2023-11-21T03:06:16;13.50;;;7.00;;
34236;SDS011;20501;45.956;13.632;2023-11-21T03:08:45;11.32;;;6.80;;
34236;SDS011;20501;45.956;13.632;2023-11-21T03:11:11;12.03;;;7.47;;
34236;SDS011;20501;45.956;13.632;2023-11-21T03:13:38;12.05;;;6.88;;
34236;SDS011;20501;45.956;13.632;2023-11-21T03:16:04;13.15;;;7.93;;
34236;SDS011;20501;45.956;13.632;2023-11-21T03:18:31;10.52;;;7.03;;
34236;SDS011;20501;45.956;13.632;2023-11-21T03:20:56;12.43;;;6.85;;
34236;SDS011;20501;45.956;13.632;2023-11-21T03:23:22;12.80;;;7.07;;
34236;SDS011;20501;45.956;13.632;2023-11-21T03:25:47;13.98;;;6.60;;
34236;SDS011;20501;45.956;13.632;2023-11-21T03:28:13;12.68;;;7.47;;
34236;SDS011;20501;45.956;13.632;2023-11-21T03:30:38;17.00;;;7.78;;
34236;SDS011;20501;45.956;13.632;2023-11-21T03:33:05;10.43;;;6.45;;
34236;SDS011;20501;45.956;13.632;2023-11-21T03:35:30;10.07;;;6.88;;
34236;SDS011;20501;45.956;13.632;2023-11-21T03:37:56;14.63;;;6.57;;
34236;SDS011;20501;45.956;13.632;2023-11-21T03:40:22;14.02;;;7.63;;
34236;SDS011;20501;45.956;13.632;2023-11-21T03:42:47;12.52;;;7.07;;
34236;SDS011;20501;45.956;13.632;2023-11-21T03:45:12;9.20;;;6.85;;
34236;SDS011;20501;45.956;13.632;2023-11-21T03:47:39;10.50;;;6.80;;
34236;SDS011;20501;45.956;13.632;2023-11-21T03:50:08;13.70;;;7.35;;
34236;SDS011;20501;45.956;13.632;2023-11-21T03:52:37;11.07;;;6.60;;
34236;SDS011;20501;45.956;13.632;2023-11-21T03:55:02;11.48;;;7.10;;
34236;SDS011;20501;45.956;13.632;2023-11-21T03:57:28;11.20;;;7.03;;
34236;SDS011;20501;45.956;13.632;2023-11-21T03:59:53;13.35;;;7.30;;
34236;SDS011;20501;45.956;13.632;2023-11-21T04:02:19;14.05;;;7.43;;
34236;SDS011;20501;45.956;13.632;2023-11-21T04:04:45;13.43;;;7.38;;
34236;SDS011;20501;45.956;13.632;2023-11-21T04:07:10;15.45;;;8.25;;
34236;SDS011;20501;45.956;13.632;2023-11-21T04:09:36;14.77;;;7.15;;
34236;SDS011;20501;45.956;13.632;2023-11-21T04:12:01;14.07;;;7.82;;
34236;SDS011;20501;45.956;13.632;2023-11-21T04:14:27;12.13;;;7.15;;
34236;SDS011;20501;45.956;13.632;2023-11-21T04:16:52;13.82;;;7.88;;
34236;SDS011;20501;45.956;13.632;2023-11-21T04:19:18;13.13;;;7.70;;
34236;SDS011;20501;45.956;13.632;2023-11-21T04:21:44;12.88;;;7.50;;
34236;SDS011;20501;45.956;13.632;2023-11-21T04:24:09;10.30;;;7.20;;
34236;SDS011;20501;45.956;13.632;2023-11-21T04:26:35;10.55;;;7.22;;
34236;SDS011;20501;45.956;13.632;2023-11-21T04:29:01;10.75;;;7.10;;
34236;SDS011;20501;45.956;13.632;2023-11-21T04:31:26;11.45;;;6.45;;
34236;SDS011;20501;45.956;13.632;2023-11-21T04:33:52;9.27;;;6.50;;
34236;SDS011;20501;45.956;13.632;2023-11-21T04:36:17;10.70;;;6.07;;
34236;SDS011;20501;45.956;13.632;2023-11-21T04:38:42;11.82;;;6.90;;
34236;SDS011;20501;45.956;13.632;2023-11-21T04:41:10;11.93;;;7.43;;
34236;SDS011;20501;45.956;13.632;2023-11-21T04:43:36;14.02;;;7.22;;
34236;SDS011;20501;45.956;13.632;2023-11-21T04:46:02;15.35;;;7.30;;
34236;SDS011;20501;45.956;13.632;2023-11-21T04:48:28;10.48;;;6.85;;
34236;SDS011;20501;45.956;13.632;2023-11-21T04:50:53;11.07;;;6.85;;
34236;SDS011;20501;45.956;13.632;2023-11-21T04:53:19;10.30;;;6.45;;
34236;SDS011;20501;45.956;13.632;2023-11-21T04:55:44;14.18;;;7.30;;
34236;SDS011;20501;45.956;13.632;2023-11-21T04:58:11;14.35;;;7.13;;
34236;SDS011;20501;45.956;13.632;2023-11-21T05:00:37;12.67;;;7.13;;
34236;SDS011;20501;45.956;13.632;2023-11-21T05:03:03;26.38;;;8.13;;
34236;SDS011;20501;45.956;13.632;2023-11-21T05:05:29;17.30;;;7.50;;
34236;SDS011;20501;45.956;13.632;2023-11-21T05:07:55;11.25;;;7.60;;
34236;SDS011;20501;45.956;13.632;2023-11-21T05:10:20;15.48;;;7.50;;
34236;SDS011;20501;45.956;13.632;2023-11-21T05:12:47;11.82;;;7.10;;
34236;SDS011;20501;45.956;13.632;2023-11-21T05:15:14;10.20;;;7.25;;
34236;SDS011;20501;45.956;13.632;2023-11-21T05:17:40;12.32;;;7.18;;
34236;SDS011;20501;45.956;13.632;2023-11-21T05:20:09;10.98;;;7.47;;
34236;SDS011;20501;45.956;13.632;2023-11-21T05:22:37;13.57;;;8.45;;
34236;SDS011;20501;45.956;13.632;2023-11-21T05:25:02;15.45;;;8.38;;
34236;SDS011;20501;45.956;13.632;2023-11-21T05:27:29;14.65;;;8.38;;
34236;SDS011;20501;45.956;13.632;2023-11-21T05:29:58;22.13;;;10.30;;
34236;SDS011;20501;45.956;13.632;2023-11-21T05:32:24;18.60;;;10.95;;
34236;SDS011;20501;45.956;13.632;2023-11-21T05:34:49;15.20;;;8.77;;
34236;SDS011;20501;45.956;13.632;2023-11-21T05:37:15;14.27;;;9.32;;
34236;SDS011;20501;45.956;13.632;2023-11-21T05:39:40;16.38;;;9.85;;
34236;SDS011;20501;45.956;13.632;2023-11-21T05:42:06;26.58;;;15.57;;
34236;SDS011;20501;45.956;13.632;2023-11-21T05:44:31;27.55;;;13.88;;
34236;SDS011;20501;45.956;13.632;2023-11-21T05:46:57;28.88;;;12.93;;
34236;SDS011;20501;45.956;13.632;2023-11-21T05:49:23;25.20;;;12.50;;
34236;SDS011;20501;45.956;13.632;2023-11-21T05:51:51;21.77;;;10.52;;
34236;SDS011;20501;45.956;13.632;2023-11-21T05:54:19;21.00;;;10.23;;
34236;SDS011;20501;45.956;13.632;2023-11-21T05:56:44;22.35;;;10.85;;
34236;SDS011;20501;45.956;13.632;2023-11-21T05:59:10;18.60;;;10.43;;
34236;SDS011;20501;45.956;13.632;2023-11-21T06:01:35;17.45;;;9.68;;
34236;SDS011;20501;45.956;13.632;2023-11-21T06:04:03;18.10;;;9.32;;
34236;SDS011;20501;45.956;13.632;2023-11-21T06:06:29;14.88;;;9.18;;
34236;SDS011;20501;45.956;13.632;2023-11-21T06:08:54;13.20;;;9.65;;
34236;SDS011;20501;45.956;13.632;2023-11-21T06:11:20;19.52;;;10.43;;
34236;SDS011;20501;45.956;13.632;2023-11-21T06:13:45;17.52;;;11.10;;
34236;SDS011;20501;45.956;13.632;2023-11-21T06:16:13;18.75;;;10.40;;
34236;SDS011;20501;45.956;13.632;2023-11-21T06:18:41;20.75;;;11.95;;
34236;SDS011;20501;45.956;13.632;2023-11-21T06:21:09;16.33;;;11.27;;
34236;SDS011;20501;45.956;13.632;2023-11-21T06:23:35;26.58;;;12.35;;
34236;SDS011;20501;45.956;13.632;2023-11-21T06:26:00;30.45;;;18.10;;
34236;SDS011;20501;45.956;13.632;2023-11-21T06:28:26;19.50;;;12.38;;
34236;SDS011;20501;45.956;13.632;2023-11-21T06:30:51;26.38;;;11.68;;
34236;SDS011;20501;45.956;13.632;2023-11-21T06:33:18;16.55;;;9.07;;
34236;SDS011;20501;45.956;13.632;2023-11-21T06:35:44;21.17;;;12.48;;
34236;SDS011;20501;45.956;13.632;2023-11-21T06:38:09;19.33;;;11.35;;
34236;SDS011;20501;45.956;13.632;2023-11-21T06:40:35;23.50;;;9.85;;
34236;SDS011;20501;45.956;13.632;2023-11-21T06:43:01;17.10;;;9.50;;
34236;SDS011;20501;45.956;13.632;2023-11-21T06:45:26;16.58;;;6.90;;
34236;SDS011;20501;45.956;13.632;2023-11-21T06:47:52;9.77;;;6.28;;
34236;SDS011;20501;45.956;13.632;2023-11-21T06:50:17;17.08;;;9.52;;
34236;SDS011;20501;45.956;13.632;2023-11-21T06:52:43;8.68;;;5.45;;
34236;SDS011;20501;45.956;13.632;2023-11-21T06:55:09;12.75;;;6.88;;
34236;SDS011;20501;45.956;13.632;2023-11-21T06:57:35;14.45;;;6.88;;
34236;SDS011;20501;45.956;13.632;2023-11-21T07:00:01;5.82;;;4.28;;
34236;SDS011;20501;45.956;13.632;2023-11-21T07:02:27;4.95;;;3.17;;
34236;SDS011;20501;45.956;13.632;2023-11-21T07:04:53;10.55;;;4.15;;
34236;SDS011;20501;45.956;13.632;2023-11-21T07:07:19;7.93;;;4.60;;
34236;SDS011;20501;45.956;13.632;2023-11-21T07:09:45;5.35;;;3.30;;
34236;SDS011;20501;45.956;13.632;2023-11-21T07:12:10;3.97;;;2.47;;
34236;SDS011;20501;45.956;13.632;2023-11-21T07:14:36;2.22;;;1.70;;
34236;SDS011;20501;45.956;13.632;2023-11-21T07:17:04;1.85;;;1.48;;
34236;SDS011;20501;45.956;13.632;2023-11-21T07:19:29;2.15;;;1.13;;
34236;SDS011;20501;45.956;13.632;2023-11-21T07:21:55;1.85;;;1.40;;
34236;SDS011;20501;45.956;13.632;2023-11-21T07:24:21;3.80;;;1.50;;
34236;SDS011;20501;45.956;13.632;2023-11-21T07:26:48;3.40;;;1.40;;
34236;SDS011;20501;45.956;13.632;2023-11-21T07:29:13;1.80;;;1.25;;
34236;SDS011;20501;45.956;13.632;2023-11-21T07:31:39;5.47;;;1.42;;
34236;SDS011;20501;45.956;13.632;2023-11-21T07:34:06;2.33;;;1.30;;
34236;SDS011;20501;45.956;13.632;2023-11-21T07:36:33;3.72;;;2.05;;
34236;SDS011;20501;45.956;13.632;2023-11-21T07:38:58;3.15;;;1.70;;
34236;SDS011;20501;45.956;13.632;2023-11-21T07:41:24;1.95;;;1.45;;
34236;SDS011;20501;45.956;13.632;2023-11-21T07:43:49;2.17;;;1.58;;
34236;SDS011;20501;45.956;13.632;2023-11-21T07:46:14;5.25;;;3.03;;
34236;SDS011;20501;45.956;13.632;2023-11-21T07:48:40;13.77;;;9.30;;
34236;SDS011;20501;45.956;13.632;2023-11-21T07:53:33;10.25;;;5.68;;
34236;SDS011;20501;45.956;13.632;2023-11-21T07:56:03;4.20;;;2.00;;
34236;SDS011;20501;45.956;13.632;2023-11-21T07:58:29;2.47;;;1.23;;
34236;SDS011;20501;45.956;13.632;2023-11-21T08:00:56;3.00;;;1.70;;
34236;SDS011;20501;45.956;13.632;2023-11-21T08:03:21;2.20;;;1.40;;
34236;SDS011;20501;45.956;13.632;2023-11-21T08:05:47;5.05;;;1.30;;
34236;SDS011;20501;45.956;13.632;2023-11-21T08:08:12;2.03;;;1.30;;
34236;SDS011;20501;45.956;13.632;2023-11-21T08:10:38;3.00;;;1.40;;
34236;SDS011;20501;45.956;13.632;2023-11-21T08:13:07;4.47;;;1.10;;
34236;SDS011;20501;45.956;13.632;2023-11-21T08:15:34;4.15;;;1.50;;
34236;SDS011;20501;45.956;13.632;2023-11-21T08:18:01;3.83;;;1.55;;
34236;SDS011;20501;45.956;13.632;2023-11-21T08:20:27;4.07;;;1.90;;
34236;SDS011;20501;45.956;13.632;2023-11-21T08:22:53;4.28;;;1.88;;
34236;SDS011;20501;45.956;13.632;2023-11-21T08:27:46;3.58;;;2.10;;
34236;SDS011;20501;45.956;13.632;2023-11-21T08:30:11;4.15;;;2.00;;
34236;SDS011;20501;45.956;13.632;2023-11-21T08:32:39;5.88;;;3.10;;
34236;SDS011;20501;45.956;13.632;2023-11-21T08:35:04;2.30;;;1.60;;
34236;SDS011;20501;45.956;13.632;2023-11-21T08:37:31;11.07;;;1.67;;
34236;SDS011;20501;45.956;13.632;2023-11-21T08:42:24;3.33;;;1.90;;
34236;SDS011;20501;45.956;13.632;2023-11-21T08:44:50;4.10;;;1.38;;
34236;SDS011;20501;45.956;13.632;2023-11-21T08:47:16;2.55;;;1.60;;
34236;SDS011;20501;45.956;13.632;2023-11-21T08:49:41;1.35;;;1.20;;
34236;SDS011;20501;45.956;13.632;2023-11-21T08:52:07;1.48;;;0.90;;
34236;SDS011;20501;45.956;13.632;2023-11-21T08:54:33;3.42;;;1.00;;
34236;SDS011;20501;45.956;13.632;2023-11-21T08:56:59;1.15;;;0.82;;
34236;SDS011;20501;45.956;13.632;2023-11-21T08:59:25;4.18;;;1.27;;
34236;SDS011;20501;45.956;13.632;2023-11-21T09:01:51;2.13;;;1.52;;
34236;SDS011;20501;45.956;13.632;2023-11-21T09:04:17;3.15;;;1.48;;
34236;SDS011;20501;45.956;13.632;2023-11-21T09:06:42;0.80;;;0.80;;
34236;SDS011;20501;45.956;13.632;2023-11-21T09:09:08;2.88;;;1.17;;
34236;SDS011;20501;45.956;13.632;2023-11-21T09:11:35;1.83;;;0.95;;
34236;SDS011;20501;45.956;13.632;2023-11-21T09:14:01;1.58;;;1.15;;
34236;SDS011;20501;45.956;13.632;2023-11-21T09:18:53;2.17;;;1.27;;
34236;SDS011;20501;45.956;13.632;2023-11-21T09:21:19;3.97;;;1.20;;
34236;SDS011;20501;45.956;13.632;2023-11-21T09:23:44;1.85;;;1.33;;
34236;SDS011;20501;45.956;13.632;2023-11-21T09:26:09;1.15;;;0.98;;
34236;SDS011;20501;45.956;13.632;2023-11-21T09:28:35;6.55;;;1.23;;
34236;SDS011;20501;45.956;13.632;2023-11-21T09:31:03;2.70;;;1.40;;
34236;SDS011;20501;45.956;13.632;2023-11-21T09:33:29;5.57;;;1.67;;
34236;SDS011;20501;45.956;13.632;2023-11-21T09:35:56;5.70;;;2.70;;
34236;SDS011;20501;45.956;13.632;2023-11-21T09:38:22;6.13;;;2.53;;
34236;SDS011;20501;45.956;13.632;2023-11-21T09:40:47;5.75;;;2.75;;
34236;SDS011;20501;45.956;13.632;2023-11-21T09:43:15;6.00;;;2.28;;
34236;SDS011;20501;45.956;13.632;2023-11-21T09:45:45;6.53;;;4.70;;
34236;SDS011;20501;45.956;13.632;2023-11-21T09:48:19;1.47;;;1.30;;
34236;SDS011;20501;45.956;13.632;2023-11-21T09:50:46;1.73;;;1.03;;
34236;SDS011;20501;45.956;13.632;2023-11-21T09:53:13;1.30;;;1.20;;
34236;SDS011;20501;45.956;13.632;2023-11-21T09:55:51;0.85;;;0.82;;
34236;SDS011;20501;45.956;13.632;2023-11-21T09:58:18;1.55;;;1.00;;
34236;SDS011;20501;45.956;13.632;2023-11-21T10:00:45;4.22;;;1.40;;
34236;SDS011;20501;45.956;13.632;2023-11-21T10:03:13;3.10;;;1.35;;
34236;SDS011;20501;45.956;13.632;2023-11-21T10:05:39;3.80;;;2.95;;
34236;SDS011;20501;45.956;13.632;2023-11-21T10:08:07;1.27;;;1.08;;
34236;SDS011;20501;45.956;13.632;2023-11-21T10:10:35;8.13;;;1.40;;
34236;SDS011;20501;45.956;13.632;2023-11-21T10:13:03;4.10;;;1.20;;
34236;SDS011;20501;45.956;13.632;2023-11-21T10:15:33;2.47;;;1.13;;
34236;SDS011;20501;45.956;13.632;2023-11-21T10:18:00;3.08;;;1.67;;
34236;SDS011;20501;45.956;13.632;2023-11-21T10:20:28;2.90;;;1.40;;
34236;SDS011;20501;45.956;13.632;2023-11-21T10:22:54;1.35;;;1.08;;
34236;SDS011;20501;45.956;13.632;2023-11-21T10:25:22;3.40;;;1.35;;
34236;SDS011;20501;45.956;13.632;2023-11-21T10:27:48;2.70;;;1.20;;
34236;SDS011;20501;45.956;13.632;2023-11-21T10:30:17;2.10;;;0.90;;
34236;SDS011;20501;45.956;13.632;2023-11-21T10:32:43;1.05;;;0.93;;
34236;SDS011;20501;45.956;13.632;2023-11-21T10:35:09;2.28;;;1.10;;
34236;SDS011;20501;45.956;13.632;2023-11-21T10:37:37;2.92;;;1.80;;
34236;SDS011;20501;45.956;13.632;2023-11-21T10:40:08;1.67;;;1.13;;
34236;SDS011;20501;45.956;13.632;2023-11-21T10:42:39;6.30;;;1.33;;
34236;SDS011;20501;45.956;13.632;2023-11-21T10:45:05;2.50;;;1.55;;
34236;SDS011;20501;45.956;13.632;2023-11-21T10:47:41;2.95;;;1.70;;
34236;SDS011;20501;45.956;13.632;2023-11-21T10:50:07;2.17;;;1.73;;
34236;SDS011;20501;45.956;13.632;2023-11-21T10:52:42;1.20;;;1.02;;
34236;SDS011;20501;45.956;13.632;2023-11-21T10:55:18;0.93;;;0.82;;
34236;SDS011;20501;45.956;13.632;2023-11-21T10:57:51;2.05;;;1.10;;
34236;SDS011;20501;45.956;13.632;2023-11-21T11:00:18;1.42;;;1.08;;
34236;SDS011;20501;45.956;13.632;2023-11-21T11:05:14;2.20;;;1.27;;
34236;SDS011;20501;45.956;13.632;2023-11-21T11:07:44;2.25;;;1.05;;
34236;SDS011;20501;45.956;13.632;2023-11-21T11:10:12;1.10;;;0.90;;
34236;SDS011;20501;45.956;13.632;2023-11-21T11:12:40;1.90;;;1.08;;
34236;SDS011;20501;45.956;13.632;2023-11-21T11:15:07;1.60;;;0.80;;
34236;SDS011;20501;45.956;13.632;2023-11-21T11:17:35;3.78;;;1.00;;
34236;SDS011;20501;45.956;13.632;2023-11-21T11:20:04;3.53;;;1.10;;
34236;SDS011;20501;45.956;13.632;2023-11-21T11:22:40;15.55;;;8.10;;
34236;SDS011;20501;45.956;13.632;2023-11-21T11:34:40;1.55;;;1.00;;
34236;SDS011;20501;45.956;13.632;2023-11-21T11:39:28;1.35;;;0.98;;
34236;SDS011;20501;45.956;13.632;2023-11-21T11:42:02;3.47;;;1.05;;
34236;SDS011;20501;45.956;13.632;2023-11-21T11:47:14;2.05;;;1.40;;
34236;SDS011;20501;45.956;13.632;2023-11-21T11:52:45;2.75;;;0.90;;
34236;SDS011;20501;45.956;13.632;2023-11-21T11:55:16;3.25;;;1.50;;
34236;SDS011;20501;45.956;13.632;2023-11-21T11:57:45;5.07;;;1.38;;
34236;SDS011;20501;45.956;13.632;2023-11-21T12:02:53;1.67;;;1.20;;
34236;SDS011;20501;45.956;13.632;2023-11-21T12:05:22;1.05;;;0.90;;
34236;SDS011;20501;45.956;13.632;2023-11-21T12:10:25;6.72;;;1.73;;
34236;SDS011;20501;45.956;13.632;2023-11-21T12:12:58;2.00;;;1.10;;
34236;SDS011;20501;45.956;13.632;2023-11-21T12:15:30;1.90;;;1.13;;
34236;SDS011;20501;45.956;13.632;2023-11-21T12:17:56;2.97;;;1.13;;
34236;SDS011;20501;45.956;13.632;2023-11-21T12:22:53;2.97;;;1.50;;
34236;SDS011;20501;45.956;13.632;2023-11-21T12:25:21;2.45;;;1.30;;
34236;SDS011;20501;45.956;13.632;2023-11-21T12:27:48;2.95;;;1.27;;
34236;SDS011;20501;45.956;13.632;2023-11-21T12:30:16;3.03;;;1.48;;
34236;SDS011;20501;45.956;13.632;2023-11-21T12:32:54;4.13;;;1.60;;
34236;SDS011;20501;45.956;13.632;2023-11-21T12:35:27;1.80;;;1.50;;
34236;SDS011;20501;45.956;13.632;2023-11-21T12:37:56;1.50;;;0.95;;
34236;SDS011;20501;45.956;13.632;2023-11-21T12:40:22;3.22;;;1.10;;
34236;SDS011;20501;45.956;13.632;2023-11-21T12:42:49;1.88;;;1.20;;
34236;SDS011;20501;45.956;13.632;2023-11-21T12:45:27;1.80;;;1.13;;
34236;SDS011;20501;45.956;13.632;2023-11-21T12:47:57;2.75;;;1.55;;
34236;SDS011;20501;45.956;13.632;2023-11-21T12:50:26;3.42;;;1.20;;
34236;SDS011;20501;45.956;13.632;2023-11-21T12:52:59;4.25;;;1.27;;
34236;SDS011;20501;45.956;13.632;2023-11-21T12:55:30;2.30;;;1.48;;
34236;SDS011;20501;45.956;13.632;2023-11-21T13:00:32;2.90;;;1.48;;
34236;SDS011;20501;45.956;13.632;2023-11-21T13:03:02;4.28;;;1.85;;
34236;SDS011;20501;45.956;13.632;2023-11-21T13:07:58;2.92;;;1.42;;
34236;SDS011;20501;45.956;13.632;2023-11-21T13:10:27;4.90;;;1.48;;
34236;SDS011;20501;45.956;13.632;2023-11-21T13:13:00;4.07;;;2.20;;
34236;SDS011;20501;45.956;13.632;2023-11-21T13:15:29;2.30;;;1.75;;
34236;SDS011;20501;45.956;13.632;2023-11-21T13:17:56;3.05;;;1.85;;
34236;SDS011;20501;45.956;13.632;2023-11-21T13:20:23;2.63;;;1.65;;
34236;SDS011;20501;45.956;13.632;2023-11-21T13:22:50;3.10;;;1.73;;
34236;SDS011;20501;45.956;13.632;2023-11-21T13:25:20;8.75;;;1.48;;
34236;SDS011;20501;45.956;13.632;2023-11-21T13:30:13;1.80;;;1.30;;
34236;SDS011;20501;45.956;13.632;2023-11-21T13:32:42;4.18;;;1.13;;
34236;SDS011;20501;45.956;13.632;2023-11-21T13:35:09;1.95;;;1.30;;
34236;SDS011;20501;45.956;13.632;2023-11-21T13:37:46;7.13;;;1.67;;
34236;SDS011;20501;45.956;13.632;2023-11-21T13:40:14;3.67;;;2.03;;
34236;SDS011;20501;45.956;13.632;2023-11-21T13:42:45;2.38;;;1.40;;
34236;SDS011;20501;45.956;13.632;2023-11-21T13:45:10;3.85;;;1.80;;
34236;SDS011;20501;45.956;13.632;2023-11-21T13:47:37;2.90;;;1.25;;
34236;SDS011;20501;45.956;13.632;2023-11-21T13:50:04;2.83;;;1.10;;
34236;SDS011;20501;45.956;13.632;2023-11-21T13:52:41;5.50;;;1.75;;
34236;SDS011;20501;45.956;13.632;2023-11-21T13:55:08;2.58;;;1.75;;
34236;SDS011;20501;45.956;13.632;2023-11-21T13:57:40;9.77;;;1.90;;
34236;SDS011;20501;45.956;13.632;2023-11-21T14:00:08;9.00;;;2.10;;
34236;SDS011;20501;45.956;13.632;2023-11-21T14:02:54;6.25;;;1.67;;
34236;SDS011;20501;45.956;13.632;2023-11-21T14:05:21;2.03;;;0.95;;
34236;SDS011;20501;45.956;13.632;2023-11-21T14:07:54;2.63;;;1.80;;
34236;SDS011;20501;45.956;13.632;2023-11-21T14:12:49;3.72;;;1.80;;
34236;SDS011;20501;45.956;13.632;2023-11-21T14:15:15;2.25;;;1.50;;
34236;SDS011;20501;45.956;13.632;2023-11-21T14:17:44;4.25;;;1.90;;
34236;SDS011;20501;45.956;13.632;2023-11-21T14:20:09;7.65;;;2.28;;
34236;SDS011;20501;45.956;13.632;2023-11-21T14:22:41;3.20;;;1.67;;
34236;SDS011;20501;45.956;13.632;2023-11-21T14:25:06;5.05;;;3.28;;
34236;SDS011;20501;45.956;13.632;2023-11-21T14:27:32;4.97;;;1.77;;
34236;SDS011;20501;45.956;13.632;2023-11-21T14:29:58;3.67;;;2.17;;
34236;SDS011;20501;45.956;13.632;2023-11-21T14:32:24;6.20;;;2.95;;
34236;SDS011;20501;45.956;13.632;2023-11-21T14:34:51;4.45;;;2.55;;
34236;SDS011;20501;45.956;13.632;2023-11-21T14:37:17;4.03;;;2.33;;
34236;SDS011;20501;45.956;13.632;2023-11-21T14:39:42;2.80;;;2.13;;
34236;SDS011;20501;45.956;13.632;2023-11-21T14:42:14;5.32;;;2.85;;
34236;SDS011;20501;45.956;13.632;2023-11-21T14:44:40;10.52;;;3.72;;
34236;SDS011;20501;45.956;13.632;2023-11-21T14:47:07;7.70;;;3.63;;
34236;SDS011;20501;45.956;13.632;2023-11-21T14:49:42;3.45;;;2.08;;
34236;SDS011;20501;45.956;13.632;2023-11-21T14:55:03;13.07;;;4.32;;
34236;SDS011;20501;45.956;13.632;2023-11-21T14:57:47;10.07;;;4.32;;
34236;SDS011;20501;45.956;13.632;2023-11-21T15:00:16;6.97;;;3.30;;
34236;SDS011;20501;45.956;13.632;2023-11-21T15:03:01;8.82;;;3.67;;
34236;SDS011;20501;45.956;13.632;2023-11-21T15:05:27;4.38;;;2.85;;
34236;SDS011;20501;45.956;13.632;2023-11-21T15:07:54;12.95;;;4.53;;
34236;SDS011;20501;45.956;13.632;2023-11-21T15:10:33;9.45;;;3.35;;
34236;SDS011;20501;45.956;13.632;2023-11-21T15:13:11;4.28;;;2.80;;
34236;SDS011;20501;45.956;13.632;2023-11-21T15:15:37;4.28;;;2.70;;
34236;SDS011;20501;45.956;13.632;2023-11-21T15:18:04;7.70;;;2.40;;